DAAGDABT

Guest
Details From DAAG - Alger Houari Boumediene
To DABT - BATNA
Flight Number -
Tags generated
Created
Modified
Stats Distance 160 nm / 297 km
Max Altitude 13,800 ft / 4,206 m
Waypoints 3
Social Downloads 1
Likes 0
Share VATSIM

Download

Looking for another format? Having issues loading an existing format? Contact us
Advertisement - Login to hide

Notes

Basic altitude profile: - Ascent Rate: 2500ft/min - Ascent Speed: 250kts - Cruise Altitude: 25000ft - Cruise Speed: 420kts - Descent Rate: 2000ft/min - Descent Speed: 250kts Options: - Use NATs: yes - Use PACOTS: yes - Use low airways: yes - Use high airways: yes

Route

DAAG TAGRO DABT

ID Type Via Altitude Latitude Longitude Leg Dist Tot Dist Heading (true) Name
O DAAG APT - 0 ft / 0 m 36.69752˚ 3.21308˚ - 0 nm - Alger Houari Boumediene
TAGRO FIX - 13,800 ft / 4,206 m 36.21611˚ 5.00000˚ 91 nm 91 nm 108° / 109° -
O DABT APT - 0 ft / 0 m 35.75210˚ 6.30859˚ 69 nm 160 nm 113° / 114° BATNA

Altitude Profile

Advertisement - Login to hide

DAAG

Details ICAO DAAG (ALG)
Name Alger Houari Boumediene
Region Algeria
Timezone Africa/Algiers (UTC+1.0)
Stats Elevation 82 ft / 25 m (AMSL)
Location 36.697521° 3.213079°
Runways 2
Magnetic Variation 1.058° E

METAR

DAAG 161300Z 32012KT 9999 SCT023 FEW026TCU 16/07 Q1017

Decode

TAF

TAF TAF DAAG 161100Z 1612/1712 28012KT 9999 SCT023 FEW026TCU PROB30 TEMPO 1612/1618 5000 -RA FEW026CB PROB40 TEMPO 1619/1702 3000 RA BKN015 FEW023CB

Decode

Departure Runways

ID Width Length Bearing (true) Bearing (mag) Surface Threshold Offset Overrun Length
05 197 ft / 60 m 11,459 ft / 3,493 m 52.87° 51.81° Asphalt 0 ft / 0 m 0 ft / 0 m
09 148 ft / 45 m 11,442 ft / 3,487 m 91.75° 90.69° Asphalt 0 ft / 0 m 1,017 ft / 310 m
23 197 ft / 60 m 11,459 ft / 3,493 m 232.89° 231.83° Asphalt 0 ft / 0 m 0 ft / 0 m
27 148 ft / 45 m 11,442 ft / 3,487 m 271.78° 270.72° Asphalt 0 ft / 0 m 0 ft / 0 m

DABT

Details ICAO DABT (BLJ)
Name BATNA
Region Algeria
Timezone Africa/Algiers (UTC+1.0)
Stats Elevation 2,697 ft / 822 m (AMSL)
Location 35.752104° 6.308589°
Runways 1
Magnetic Variation 1.652° E

METAR

DABT 161300Z 29009KT 8000 -RA FEW005 SCT016 BKN020 09/07 Q1013

Decode

TAF

TAF DABT 161100Z 1612/1712 31014KT 9999 FEW010 BKN026 PROB40 TEMPO 1612/1618 5000 -RA SCT020TCU

Decode

Destination Runways

ID Width Length Bearing (true) Bearing (mag) Surface Threshold Offset Overrun Length
05 148 ft / 45 m 9,837 ft / 2,998 m 54.80° 53.15° Asphalt 0 ft / 0 m 350 ft / 107 m
23 148 ft / 45 m 9,837 ft / 2,998 m 234.81° 233.16° Asphalt 0 ft / 0 m 375 ft / 114 m

Popular Alternatives